createdAt,value
2022-09-26T00:01:35.295Z,26.01
2022-09-26T00:04:07.151Z,26.01
2022-09-26T00:06:34.574Z,26.01
2022-09-26T00:09:02.067Z,26.01
2022-09-26T00:11:32.722Z,26.01
2022-09-26T00:14:07.922Z,26.02
2022-09-26T00:16:35.562Z,26.03
2022-09-26T00:19:03.661Z,26.02
2022-09-26T00:21:32.209Z,26.02
2022-09-26T00:24:04.883Z,26.02
2022-09-26T00:26:34.468Z,26.01
2022-09-26T00:29:05.198Z,25.99
2022-09-26T00:31:35.956Z,25.99
2022-09-26T00:34:10.710Z,25.99
2022-09-26T00:36:39.100Z,25.99
2022-09-26T00:39:11.389Z,25.99
2022-09-26T00:41:39.631Z,25.99
2022-09-26T00:44:37.566Z,25.98
2022-09-26T00:47:14.590Z,25.98
2022-09-26T00:49:52.803Z,25.97
2022-09-26T00:52:32.948Z,25.98
2022-09-26T00:55:04.433Z,25.97
2022-09-26T00:57:38.445Z,25.97
2022-09-26T01:00:10.810Z,25.97
2022-09-26T01:02:40.549Z,25.97
2022-09-26T01:05:11.143Z,25.96
2022-09-26T01:07:38.654Z,25.96
2022-09-26T01:10:07.171Z,25.95
2022-09-26T01:12:38.796Z,25.95
2022-09-26T01:15:09.641Z,25.95
2022-09-26T01:17:40.002Z,25.94
2022-09-26T01:20:34.212Z,25.95
2022-09-26T01:23:28.926Z,25.94
2022-09-26T01:26:33.556Z,25.95
2022-09-26T01:29:32.112Z,25.94
2022-09-26T01:35:48.815Z,25.95
2022-09-26T01:38:53.773Z,25.95
2022-09-26T01:41:27.277Z,25.95
2022-09-26T01:44:05.200Z,25.96
2022-09-26T01:46:51.823Z,25.97
2022-09-26T01:49:26.110Z,25.97
2022-09-26T01:52:22.520Z,25.97
2022-09-26T01:55:00.031Z,25.98
2022-09-26T01:57:40.697Z,25.98
2022-09-26T02:00:12.905Z,25.98
2022-09-26T02:02:46.440Z,25.98
2022-09-26T02:05:26.233Z,25.99
2022-09-26T02:08:07.324Z,25.99
2022-09-26T02:10:50.217Z,25.98
2022-09-26T02:13:25.565Z,25.98
2022-09-26T02:15:59.029Z,25.97
2022-09-26T02:18:38.610Z,25.97
2022-09-26T02:21:24.240Z,25.96
2022-09-26T02:23:55.053Z,25.95
2022-09-26T02:26:26.750Z,25.94
2022-09-26T02:29:01.268Z,25.95
2022-09-26T02:31:36.119Z,25.94
2022-09-26T02:34:08.586Z,25.94
2022-09-26T02:36:37.064Z,25.94
2022-09-26T02:39:05.344Z,25.93
2022-09-26T02:41:58.057Z,25.93
2022-09-26T02:44:42.844Z,25.92
2022-09-26T02:47:26.302Z,25.92
2022-09-26T02:50:20.930Z,25.92
2022-09-26T02:53:08.234Z,25.92
2022-09-26T02:55:52.243Z,25.91
2022-09-26T02:58:26.367Z,25.92
2022-09-26T03:01:20.195Z,25.92
2022-09-26T03:03:54.911Z,25.92
2022-09-26T03:06:30.866Z,25.93
2022-09-26T03:09:00.398Z,25.93
2022-09-26T03:11:29.939Z,25.93
2022-09-26T03:14:02.115Z,25.93
2022-09-26T03:16:34.672Z,25.93
2022-09-26T03:19:32.747Z,25.94
2022-09-26T03:22:00.458Z,25.94
2022-09-26T03:24:31.956Z,25.95
2022-09-26T03:27:01.065Z,25.95
2022-09-26T03:29:29.381Z,25.96
2022-09-26T03:31:57.442Z,25.96
2022-09-26T03:34:25.275Z,25.96
2022-09-26T03:36:53.835Z,25.96
2022-09-26T03:39:22.841Z,25.96
2022-09-26T03:42:14.545Z,25.95
2022-09-26T03:44:44.415Z,25.96
2022-09-26T03:47:12.508Z,25.96
2022-09-26T03:49:42.089Z,25.97
2022-09-26T03:52:13.452Z,25.97
2022-09-26T03:54:41.490Z,25.96
2022-09-26T03:57:10.912Z,25.95
2022-09-26T03:59:44.529Z,25.95
2022-09-26T04:02:14.197Z,25.95
2022-09-26T04:04:43.988Z,25.94
2022-09-26T04:07:13.524Z,25.94
2022-09-26T04:09:41.803Z,25.94
2022-09-26T04:12:09.311Z,25.94
2022-09-26T04:14:38.149Z,25.94
2022-09-26T04:17:05.488Z,25.94
2022-09-26T04:19:36.949Z,25.93
2022-09-26T04:22:08.432Z,25.93
2022-09-26T04:24:36.295Z,25.93
2022-09-26T04:27:04.449Z,25.94
2022-09-26T04:29:35.502Z,25.93
2022-09-26T04:32:17.660Z,25.93
2022-09-26T04:35:05.113Z,25.92
2022-09-26T04:37:35.498Z,25.92
2022-09-26T04:40:05.190Z,25.92
2022-09-26T04:42:37.407Z,25.92
2022-09-26T04:45:12.313Z,25.93
2022-09-26T04:47:40.422Z,25.92
2022-09-26T04:50:37.050Z,25.92
2022-09-26T04:53:08.381Z,25.92
2022-09-26T04:55:51.452Z,25.92
2022-09-26T04:58:23.129Z,25.93
2022-09-26T05:01:05.611Z,25.95
2022-09-26T05:03:58.973Z,25.96
2022-09-26T05:06:29.586Z,25.98
2022-09-26T05:08:59.283Z,25.98
2022-09-26T05:11:43.975Z,25.97
2022-09-26T05:14:15.830Z,25.96
2022-09-26T05:16:44.138Z,25.96
2022-09-26T05:19:14.593Z,25.97
2022-09-26T05:22:05.256Z,25.95
2022-09-26T05:24:51.142Z,25.95
2022-09-26T05:27:21.986Z,25.94
2022-09-26T05:29:57.717Z,25.94
2022-09-26T05:32:25.665Z,25.94
2022-09-26T05:34:58.348Z,25.95
2022-09-26T05:37:27.767Z,25.95
2022-09-26T05:40:14.361Z,25.95
2022-09-26T05:42:46.752Z,25.95
2022-09-26T05:45:20.764Z,25.95
2022-09-26T05:48:15.909Z,25.94
2022-09-26T05:50:55.638Z,25.95
2022-09-26T05:53:26.375Z,25.94
2022-09-26T05:55:55.530Z,25.95
2022-09-26T05:58:50.384Z,25.95
2022-09-26T06:01:23.368Z,25.96
2022-09-26T06:04:08.143Z,25.96
2022-09-26T06:06:44.845Z,25.96
2022-09-26T06:09:14.667Z,25.97
2022-09-26T06:12:01.537Z,25.97
2022-09-26T06:14:32.690Z,25.98
2022-09-26T06:19:48.181Z,26.01
2022-09-26T06:22:22.602Z,26.02
2022-09-26T06:24:53.888Z,26.10
2022-09-26T06:27:45.037Z,26.12
2022-09-26T06:30:13.341Z,26.14
2022-09-26T06:32:46.680Z,26.16
2022-09-26T06:35:38.332Z,26.18
2022-09-26T06:38:26.399Z,26.19
2022-09-26T06:40:59.594Z,26.21
2022-09-26T06:43:38.214Z,26.22
2022-09-26T06:46:32.168Z,26.23
2022-09-26T06:49:18.144Z,26.24
2022-09-26T06:51:55.771Z,26.24
2022-09-26T06:54:25.162Z,26.25
2022-09-26T06:56:53.439Z,26.26
2022-09-26T06:59:26.626Z,26.26
2022-09-26T07:02:03.709Z,26.27
2022-09-26T07:04:41.628Z,26.30
2022-09-26T07:07:37.869Z,26.37
2022-09-26T07:10:08.035Z,26.38
2022-09-26T07:12:53.893Z,26.40
2022-09-26T07:15:22.082Z,26.41
2022-09-26T07:17:49.962Z,26.43
2022-09-26T07:20:47.799Z,26.44
2022-09-26T07:23:41.070Z,26.46
2022-09-26T07:26:30.802Z,26.46
2022-09-26T07:29:00.189Z,26.46
2022-09-26T07:31:30.158Z,26.45
2022-09-26T07:34:15.839Z,26.46
2022-09-26T07:36:50.005Z,26.45
2022-09-26T07:39:23.840Z,26.46
2022-09-26T07:41:52.755Z,26.51
2022-09-26T07:47:31.173Z,26.51
2022-09-26T07:50:38.452Z,26.52
2022-09-26T07:53:31.488Z,26.52
2022-09-26T07:56:30.923Z,26.53
2022-09-26T07:59:43.369Z,26.53
2022-09-26T08:02:47.421Z,26.54
2022-09-26T08:05:21.750Z,26.54
2022-09-26T08:07:50.543Z,26.54
2022-09-26T08:10:46.483Z,26.55
2022-09-26T08:13:30.939Z,26.60
2022-09-26T08:16:23.924Z,26.61
2022-09-26T08:19:01.807Z,26.61
2022-09-26T08:21:45.746Z,26.62
2022-09-26T08:24:14.504Z,26.63
2022-09-26T08:26:56.428Z,26.65
2022-09-26T08:29:28.379Z,26.65
2022-09-26T08:31:56.361Z,26.66
2022-09-26T08:34:28.390Z,26.66
2022-09-26T08:37:27.632Z,26.65
2022-09-26T08:40:35.460Z,26.66
2022-09-26T08:43:43.090Z,26.70
2022-09-26T08:46:53.608Z,26.73
2022-09-26T08:49:48.766Z,26.73
2022-09-26T08:52:35.937Z,26.73
2022-09-26T08:55:20.341Z,26.72
2022-09-26T08:57:56.848Z,26.72
2022-09-26T09:00:27.269Z,26.74
2022-09-26T09:03:10.941Z,26.76
2022-09-26T09:06:18.062Z,26.77
2022-09-26T09:08:58.140Z,26.77
2022-09-26T09:15:23.654Z,26.86
2022-09-26T09:18:31.164Z,26.86
2022-09-26T09:24:59.636Z,26.88
2022-09-26T09:27:55.053Z,26.89
2022-09-26T09:30:38.437Z,26.90
2022-09-26T09:33:30.398Z,26.92
2022-09-26T09:36:26.454Z,26.93
2022-09-26T09:39:32.480Z,26.94
2022-09-26T09:42:13.473Z,26.97
2022-09-26T09:44:49.859Z,27.02
2022-09-26T09:47:31.452Z,27.02
2022-09-26T09:50:00.265Z,27.02
2022-09-26T09:52:40.629Z,27.03
2022-09-26T09:58:44.606Z,27.05
2022-09-26T10:01:22.760Z,27.06
2022-09-26T10:04:07.692Z,27.07
2022-09-26T10:06:44.105Z,27.07
2022-09-26T10:09:36.466Z,27.12
2022-09-26T10:12:42.633Z,27.20
2022-09-26T10:16:09.438Z,27.22
2022-09-26T10:22:57.352Z,27.26
2022-09-26T10:25:31.349Z,27.25
2022-09-26T10:28:01.673Z,27.27
2022-09-26T10:30:36.954Z,27.29
2022-09-26T10:33:06.526Z,27.29
2022-09-26T10:35:49.456Z,27.29
2022-09-26T10:38:28.321Z,27.30
2022-09-26T10:41:24.849Z,27.31
2022-09-26T10:43:58.350Z,27.32
2022-09-26T10:47:44.207Z,27.36
2022-09-26T10:50:35.515Z,27.43
2022-09-26T10:53:42.105Z,27.44
2022-09-26T10:56:22.048Z,27.46
2022-09-26T10:58:52.699Z,27.46
2022-09-26T11:01:27.373Z,27.46
2022-09-26T11:04:13.733Z,27.46
2022-09-26T11:07:02.382Z,27.46
2022-09-26T11:09:47.057Z,27.46
2022-09-26T11:13:20.029Z,27.46
2022-09-26T11:16:16.150Z,27.43
2022-09-26T11:19:12.573Z,27.42
2022-09-26T11:22:28.801Z,27.41
2022-09-26T11:25:16.763Z,27.42
2022-09-26T11:38:17.874Z,27.41
2022-09-26T11:41:11.932Z,27.40
2022-09-26T11:44:43.322Z,27.42
2022-09-26T11:47:19.849Z,27.45
2022-09-26T11:49:57.773Z,27.45
2022-09-26T11:52:48.258Z,27.45
2022-09-26T11:55:32.197Z,27.46
2022-09-26T11:58:20.162Z,27.47
2022-09-26T12:01:28.198Z,27.46
2022-09-26T12:08:37.560Z,27.44
2022-09-26T12:11:25.224Z,27.43
2022-09-26T12:14:39.942Z,27.44
2022-09-26T12:17:22.954Z,27.43
2022-09-26T12:20:16.338Z,27.43
2022-09-26T12:23:53.919Z,27.42
2022-09-26T12:26:39.271Z,27.41
2022-09-26T12:29:56.423Z,27.41
2022-09-26T12:32:56.121Z,27.40
2022-09-26T12:35:57.179Z,27.40
2022-09-26T12:41:55.515Z,27.40
2022-09-26T12:44:37.785Z,27.42
2022-09-26T12:48:30.534Z,27.47
2022-09-26T12:51:28.557Z,27.47
2022-09-26T12:54:08.214Z,27.50
2022-09-26T12:57:03.315Z,27.52
2022-09-26T12:59:40.881Z,27.54
2022-09-26T13:05:46.122Z,27.55
2022-09-26T13:08:54.045Z,27.55
2022-09-26T13:11:56.212Z,27.54
2022-09-26T13:15:01.546Z,27.54
2022-09-26T13:18:28.998Z,27.56
2022-09-26T13:21:14.561Z,27.56
2022-09-26T13:24:10.164Z,27.57
2022-09-26T13:26:50.682Z,27.58
2022-09-26T13:30:09.057Z,27.59
2022-09-26T13:33:29.047Z,27.59
2022-09-26T13:36:01.130Z,27.58
2022-09-26T13:39:02.563Z,27.59
2022-09-26T13:41:36.684Z,27.56
2022-09-26T13:49:02.595Z,27.52
2022-09-26T13:52:09.112Z,27.50
2022-09-26T13:55:05.979Z,27.49
2022-09-26T13:58:09.679Z,27.47
2022-09-26T14:00:41.866Z,27.50
2022-09-26T14:03:12.975Z,27.55
2022-09-26T14:05:49.126Z,27.56
2022-09-26T14:08:44.301Z,27.57
2022-09-26T14:11:52.613Z,27.58
2022-09-26T14:14:28.090Z,27.57
2022-09-26T14:17:02.859Z,27.59
2022-09-26T14:20:11.773Z,27.60
2022-09-26T14:22:52.571Z,27.59
2022-09-26T14:25:59.808Z,27.58
2022-09-26T14:36:08.789Z,27.55
2022-09-26T14:37:34.886Z,27.55
2022-09-26T14:38:41.266Z,27.55
2022-09-26T14:41:22.245Z,27.56
2022-09-26T14:43:53.588Z,27.56
2022-09-26T14:49:39.256Z,27.57
2022-09-26T14:52:24.844Z,27.57
2022-09-26T14:58:40.300Z,27.57
2022-09-26T15:01:15.691Z,27.56
2022-09-26T15:03:59.341Z,27.56
2022-09-26T15:06:30.326Z,27.55
2022-09-26T15:09:09.256Z,27.55
2022-09-26T15:15:38.189Z,27.51
2022-09-26T15:18:37.908Z,27.51
2022-09-26T15:21:19.452Z,27.53
2022-09-26T15:23:56.823Z,27.57
2022-09-26T15:27:08.264Z,27.57
2022-09-26T15:30:30.813Z,27.57
2022-09-26T15:32:53.126Z,27.58
2022-09-26T15:41:47.071Z,27.54
2022-09-26T15:47:45.619Z,27.50
2022-09-26T15:50:39.653Z,27.47
2022-09-26T15:53:26.066Z,27.46
2022-09-26T15:56:03.798Z,27.45
2022-09-26T16:01:31.039Z,27.42
2022-09-26T16:04:44.715Z,27.42
2022-09-26T16:07:43.399Z,27.38
2022-09-26T16:10:48.100Z,27.37
2022-09-26T16:13:26.386Z,27.36
2022-09-26T16:16:14.940Z,27.37
2022-09-26T16:19:04.698Z,27.41
2022-09-26T16:21:41.985Z,27.39
2022-09-26T16:24:33.856Z,27.38
2022-09-26T16:27:02.570Z,27.38
2022-09-26T16:29:42.204Z,27.37
2022-09-26T16:32:21.961Z,27.36
2022-09-26T16:34:54.624Z,27.34
2022-09-26T16:37:27.814Z,27.33
2022-09-26T16:40:08.516Z,27.32
2022-09-26T16:42:49.617Z,27.30
2022-09-26T16:45:30.112Z,27.29
2022-09-26T16:47:58.282Z,27.27
2022-09-26T16:50:37.444Z,27.26
2022-09-26T16:53:18.000Z,27.26
2022-09-26T16:55:51.432Z,27.30
2022-09-26T16:58:18.528Z,27.30
2022-09-26T17:01:06.289Z,27.29
2022-09-26T17:03:37.356Z,27.28
2022-09-26T17:06:09.883Z,27.28
2022-09-26T17:08:37.545Z,27.28
2022-09-26T17:11:07.282Z,27.28
2022-09-26T17:13:35.706Z,27.26
2022-09-26T17:16:03.764Z,27.25
2022-09-26T17:18:35.076Z,27.23
2022-09-26T17:21:04.691Z,27.24
2022-09-26T17:23:41.604Z,27.27
2022-09-26T17:26:29.432Z,27.26
2022-09-26T17:28:58.298Z,27.25
2022-09-26T17:31:35.622Z,27.24
2022-09-26T17:34:15.703Z,27.24
2022-09-26T17:36:53.770Z,27.23
2022-09-26T17:39:28.031Z,27.22
2022-09-26T17:41:59.392Z,27.21
2022-09-26T17:44:30.617Z,27.21
2022-09-26T17:47:00.162Z,27.24
2022-09-26T17:49:41.303Z,27.24
2022-09-26T17:52:33.825Z,27.23
2022-09-26T17:55:09.845Z,27.23
2022-09-26T18:00:22.300Z,27.23
2022-09-26T18:03:03.549Z,27.21
2022-09-26T18:05:35.236Z,27.22
2022-09-26T18:08:14.419Z,27.25
2022-09-26T18:10:51.701Z,27.24
2022-09-26T18:13:27.426Z,27.23
2022-09-26T18:16:02.107Z,27.23
2022-09-26T18:18:43.465Z,27.23
2022-09-26T18:21:21.015Z,27.22
2022-09-26T18:24:12.436Z,27.22
2022-09-26T18:26:50.507Z,27.25
2022-09-26T18:29:39.029Z,27.28
2022-09-26T18:32:18.385Z,27.28
2022-09-26T18:34:47.679Z,27.28
2022-09-26T18:37:14.933Z,27.28
2022-09-26T18:39:44.891Z,27.26
2022-09-26T18:42:22.007Z,27.25
2022-09-26T18:44:53.088Z,27.22
2022-09-26T18:47:24.209Z,27.19
2022-09-26T18:50:01.900Z,27.17
2022-09-26T18:52:30.293Z,27.16
2022-09-26T18:58:59.891Z,27.11
2022-09-26T19:01:41.940Z,27.05
2022-09-26T19:07:20.841Z,27.08
2022-09-26T19:09:53.009Z,27.06
2022-09-26T19:12:21.412Z,27.06
2022-09-26T19:14:50.241Z,27.05
2022-09-26T19:17:20.362Z,27.05
2022-09-26T19:19:50.579Z,27.06
2022-09-26T19:23:17.931Z,27.09
2022-09-26T19:25:46.629Z,27.09
2022-09-26T19:28:24.959Z,27.11
2022-09-26T19:30:58.427Z,27.11
2022-09-26T19:33:30.691Z,27.11
2022-09-26T19:36:01.153Z,27.11
2022-09-26T19:38:29.849Z,27.11
2022-09-26T19:41:01.944Z,27.09
2022-09-26T19:43:29.230Z,27.08
2022-09-26T19:45:58.372Z,27.07
2022-09-26T19:48:26.907Z,27.05
2022-09-26T19:50:54.090Z,27.04
2022-09-26T19:53:23.862Z,27.03
2022-09-26T19:55:51.273Z,27.02
2022-09-26T19:58:26.101Z,27.01
2022-09-26T20:00:58.685Z,27.00
2022-09-26T20:03:40.179Z,27.00
2022-09-26T20:06:12.822Z,26.99
2022-09-26T20:08:39.877Z,26.98
2022-09-26T20:11:07.315Z,26.97
2022-09-26T20:13:54.206Z,26.97
2022-09-26T20:16:21.266Z,26.97
2022-09-26T20:18:49.157Z,26.96
2022-09-26T20:21:20.593Z,26.96
2022-09-26T20:23:47.911Z,26.96
2022-09-26T20:26:15.579Z,26.95
2022-09-26T20:28:42.665Z,26.94
2022-09-26T20:31:24.950Z,26.94
2022-09-26T20:33:54.004Z,26.93
2022-09-26T20:36:35.011Z,26.93
2022-09-26T20:39:12.425Z,26.93
2022-09-26T20:41:43.136Z,26.92
2022-09-26T20:44:18.627Z,26.92
2022-09-26T20:46:56.605Z,26.92
2022-09-26T20:49:39.858Z,26.92
2022-09-26T20:52:11.059Z,26.91
2022-09-26T20:54:38.077Z,26.91
2022-09-26T20:57:05.223Z,26.91
2022-09-26T20:59:35.160Z,26.90
2022-09-26T21:02:21.219Z,26.90
2022-09-26T21:04:48.475Z,26.90
2022-09-26T21:07:17.028Z,26.89
2022-09-26T21:09:47.326Z,26.89
2022-09-26T21:12:17.655Z,26.88
2022-09-26T21:14:44.844Z,26.88
2022-09-26T21:17:38.115Z,26.88
2022-09-26T21:20:07.256Z,26.88
2022-09-26T21:22:52.806Z,26.88
2022-09-26T21:25:23.487Z,26.87
2022-09-26T21:27:59.478Z,26.88
2022-09-26T21:30:26.571Z,26.87
2022-09-26T21:32:58.796Z,26.87
2022-09-26T21:35:29.658Z,26.85
2022-09-26T21:37:58.247Z,26.85
2022-09-26T21:40:33.221Z,26.84
2022-09-26T21:43:14.311Z,26.84
2022-09-26T21:45:43.277Z,26.83
2022-09-26T21:48:13.040Z,26.83
2022-09-26T21:50:44.403Z,26.83
2022-09-26T21:53:17.841Z,26.82
2022-09-26T21:55:53.685Z,26.83
2022-09-26T21:58:25.434Z,26.83
2022-09-26T22:00:53.986Z,26.83
2022-09-26T22:03:22.680Z,26.82
2022-09-26T22:05:49.829Z,26.82
2022-09-26T22:08:18.019Z,26.83
2022-09-26T22:10:44.977Z,26.82
2022-09-26T22:13:13.220Z,26.82
2022-09-26T22:15:41.015Z,26.82
2022-09-26T22:18:08.415Z,26.82
2022-09-26T22:20:35.900Z,26.82
2022-09-26T22:23:03.667Z,26.82
2022-09-26T22:25:31.085Z,26.82
2022-09-26T22:27:58.097Z,26.81
2022-09-26T22:31:53.356Z,26.81
2022-09-26T22:38:27.433Z,26.79
2022-09-26T22:41:05.376Z,26.80
2022-09-26T22:43:37.838Z,26.80
2022-09-26T22:46:11.322Z,26.80
2022-09-26T22:48:52.437Z,26.80
2022-09-26T22:51:53.196Z,26.81
2022-09-26T22:54:40.276Z,26.80
2022-09-26T22:57:19.569Z,26.81
2022-09-26T22:59:46.902Z,26.80
2022-09-26T23:02:19.666Z,26.80
2022-09-26T23:04:49.729Z,26.80
2022-09-26T23:07:20.705Z,26.80
2022-09-26T23:09:51.163Z,26.80
2022-09-26T23:12:26.504Z,26.80
2022-09-26T23:14:57.147Z,26.80
2022-09-26T23:17:25.317Z,26.80
2022-09-26T23:19:55.987Z,26.79
2022-09-26T23:22:44.244Z,26.79
2022-09-26T23:25:13.181Z,26.77
2022-09-26T23:27:46.400Z,26.76
2022-09-26T23:30:13.671Z,26.76
2022-09-26T23:32:49.249Z,26.76
2022-09-26T23:38:14.325Z,26.75
2022-09-26T23:40:42.975Z,26.75
2022-09-26T23:43:11.913Z,26.74
2022-09-26T23:45:45.000Z,26.74
2022-09-26T23:48:17.750Z,26.75
2022-09-26T23:50:55.135Z,26.76
2022-09-26T23:53:22.861Z,26.76
2022-09-26T23:55:59.314Z,26.77
2022-09-26T23:58:41.856Z,26.77
